Time;durP1;ratioP1;P1;durP2;ratioP2;P2;SDS_P1;SDS_P2;PMS_P1;PMS_P2;Temp;Humidity;BMP_temperature;BMP_pressure;BME280_temperature;BME280_humidity;BME280_pressure;Samples;Min_cycle;Max_cycle;Signal;HPM_P1;HPM_P2
2023/08/18 00:01:24;;;;;;;14.70;11.50;;;;;;;18.18;98.81;101672.59;5010455;28;20470;-73
2023/08/18 00:03:50;;;;;;;14.98;11.35;;;;;;;18.13;99.05;101671.28;5009758;28;20121;-73
2023/08/18 00:06:15;;;;;;;14.73;10.95;;;;;;;18.05;98.92;101670.13;5027065;28;20113;-73
2023/08/18 00:08:41;;;;;;;15.60;10.98;;;;;;;18.01;99.11;101659.53;5029193;28;20053;-69
2023/08/18 00:11:08;;;;;;;16.48;10.93;;;;;;;17.97;99.23;101658.06;5028252;28;20481;-70
2023/08/18 00:13:33;;;;;;;17.77;10.75;;;;;;;17.94;99.41;101658.31;5023213;28;20045;-73
2023/08/18 00:15:58;;;;;;;16.95;10.55;;;;;;;17.95;98.88;101655.44;5010129;28;20486;-73
2023/08/18 00:18:24;;;;;;;16.42;11.10;;;;;;;17.98;99.37;101657.91;5009301;28;20073;-73
2023/08/18 00:20:50;;;;;;;15.60;9.65;;;;;;;17.98;99.58;101657.91;5026793;28;20108;-73
2023/08/18 00:23:15;;;;;;;13.65;10.07;;;;;;;17.99;98.68;101654.13;5028884;28;20048;-72
2023/08/18 00:25:40;;;;;;;14.65;10.73;;;;;;;17.96;98.31;101661.81;5029771;28;20056;-73
2023/08/18 00:28:06;;;;;;;15.30;10.65;;;;;;;17.95;97.98;101658.19;5022375;28;20805;-73
2023/08/18 00:30:32;;;;;;;12.75;9.88;;;;;;;17.92;98.82;101646.59;5029888;28;20409;-73
2023/08/18 00:32:57;;;;;;;15.20;10.20;;;;;;;17.92;98.49;101652.09;5027529;28;20037;-72
2023/08/18 00:35:22;;;;;;;15.02;9.93;;;;;;;17.91;98.18;101645.72;5018457;28;20022;-72
2023/08/18 00:37:51;;;;;;;12.32;9.90;;;;;;;17.91;98.42;101644.84;5009303;28;20038;-73
2023/08/18 00:40:16;;;;;;;14.68;9.73;;;;;;;17.89;98.54;101646.84;5015174;28;20029;-72
2023/08/18 00:42:42;;;;;;;12.00;9.23;;;;;;;17.90;98.88;101654.97;5023366;28;20743;-73
2023/08/18 00:45:08;;;;;;;13.68;10.15;;;;;;;17.87;98.69;101652.50;5009680;28;20038;-71
2023/08/18 00:47:34;;;;;;;15.98;10.38;;;;;;;17.83;98.26;101646.41;5019970;28;20044;-72
2023/08/18 00:50:01;;;;;;;13.57;10.50;;;;;;;17.78;99.13;101647.84;5018788;28;20055;-72
2023/08/18 00:52:26;;;;;;;14.68;9.57;;;;;;;17.76;98.53;101652.59;5007823;28;20037;-73
2023/08/18 00:54:52;;;;;;;14.88;10.32;;;;;;;17.70;99.19;101653.97;5009449;28;20474;-72
2023/08/18 00:57:21;;;;;;;13.00;10.05;;;;;;;17.68;100.00;101650.50;5006949;28;20030;-72
2023/08/18 00:59:49;;;;;;;13.05;9.95;;;;;;;17.65;nan;101641.66;5009468;28;20053;-73
2023/08/18 01:02:16;;;;;;;14.77;10.43;;;;;;;17.65;99.37;101642.53;5008391;28;20042;-72
2023/08/18 01:04:43;;;;;;;20.15;10.73;;;;;;;17.65;99.37;101645.28;5012364;28;20084;-70
2023/08/18 01:07:09;;;;;;;12.35;10.30;;;;;;;17.64;99.30;101640.78;5029165;28;20139;-71
2023/08/18 01:09:34;;;;;;;16.77;10.68;;;;;;;17.63;98.87;101636.31;5016372;28;20117;-72
2023/08/18 01:12:21;;;;;;;15.05;10.00;;;;;;;17.63;99.07;101652.81;5015687;28;20021;-72
2023/08/18 01:15:14;;;;;;;16.20;10.10;;;;;;;17.64;98.84;101643.53;5030505;28;20052;-73
2023/08/18 01:17:54;;;;;;;13.27;9.77;;;;;;;17.63;99.09;101650.06;5028427;28;20037;-72
2023/08/18 01:20:21;;;;;;;15.55;9.23;;;;;;;17.62;99.25;101636.41;5017843;28;20038;-73
2023/08/18 01:23:00;;;;;;;13.38;9.35;;;;;;;17.65;99.11;101633.41;5007537;28;20042;-72
2023/08/18 01:25:26;;;;;;;13.52;10.18;;;;;;;17.63;98.42;101638.19;5007738;28;20065;-72
2023/08/18 01:27:54;;;;;;;15.77;10.27;;;;;;;17.63;98.58;101629.94;5015224;28;20037;-73
2023/08/18 01:30:20;;;;;;;14.60;9.70;;;;;;;17.62;98.45;101630.91;5028179;28;20037;-72
2023/08/18 01:32:57;;;;;;;12.50;9.75;;;;;;;17.55;98.30;101622.34;5025454;28;20037;-73
2023/08/18 01:35:27;;;;;;;13.65;10.02;;;;;;;17.51;99.81;101626.38;5026921;28;20745;-73
2023/08/18 01:37:54;;;;;;;12.40;9.38;;;;;;;17.47;99.60;101622.16;5025583;28;20038;-72
2023/08/18 01:40:25;;;;;;;15.80;10.20;;;;;;;17.46;99.28;101615.78;5026385;28;20045;-71
2023/08/18 01:42:52;;;;;;;12.43;9.70;;;;;;;17.44;99.77;101606.81;5016953;28;20041;-71
2023/08/18 01:45:17;;;;;;;16.58;9.90;;;;;;;17.46;98.46;101614.91;5042383;28;20029;-73
2023/08/18 01:47:43;;;;;;;11.45;9.27;;;;;;;17.45;99.55;101603.03;5027027;28;20045;-72
2023/08/18 01:50:09;;;;;;;12.52;9.60;;;;;;;17.39;99.11;101603.56;5018566;28;20461;-73
2023/08/18 01:52:35;;;;;;;14.10;9.70;;;;;;;17.38;98.55;101610.09;5006562;28;20084;-73
2023/08/18 01:55:00;;;;;;;12.02;8.93;;;;;;;17.41;98.82;101608.97;5007133;28;20038;-72
2023/08/18 01:57:26;;;;;;;11.60;8.52;;;;;;;17.41;98.46;101604.31;5006738;28;20508;-72
2023/08/18 01:59:51;;;;;;;14.93;9.82;;;;;;;17.38;98.69;101596.34;5020196;28;20052;-73
2023/08/18 02:02:16;;;;;;;11.18;8.98;;;;;;;17.38;98.58;101599.09;5007684;28;20057;-72
2023/08/18 02:04:42;;;;;;;13.35;10.05;;;;;;;17.39;nan;101606.31;5020896;28;20040;-70
2023/08/18 02:07:08;;;;;;;14.20;9.73;;;;;;;17.39;99.37;101600.81;5026288;28;20041;-73
2023/08/18 02:09:35;;;;;;;14.63;9.07;;;;;;;17.40;99.10;101613.59;5025829;28;20059;-72
2023/08/18 02:12:01;;;;;;;12.18;9.10;;;;;;;17.39;98.64;101603.56;5026962;28;20037;-70
2023/08/18 02:14:28;;;;;;;13.82;10.48;;;;;;;17.39;99.89;101600.81;5026074;28;20037;-73
2023/08/18 02:16:53;;;;;;;13.15;8.38;;;;;;;17.39;99.03;101598.06;5026234;28;20083;-71
2023/08/18 02:19:19;;;;;;;12.70;9.30;;;;;;;17.36;99.55;101592.00;5025140;28;20045;-73
2023/08/18 02:21:44;;;;;;;13.05;9.95;;;;;;;17.33;99.34;101595.88;5007657;28;20037;-73
2023/08/18 02:24:10;;;;;;;16.38;9.40;;;;;;;17.34;99.96;101586.59;5006889;28;20497;-73
2023/08/18 02:26:36;;;;;;;10.98;9.38;;;;;;;17.34;99.83;101590.22;5005898;28;20037;-73
2023/08/18 02:29:02;;;;;;;15.57;9.80;;;;;;;17.30;99.50;101594.28;5007078;28;20030;-72
2023/08/18 02:31:28;;;;;;;13.63;9.88;;;;;;;17.26;100.00;101595.56;5012485;28;20034;-70
2023/08/18 02:33:53;;;;;;;13.23;9.70;;;;;;;17.24;100.00;101589.31;5007866;28;20041;-72
2023/08/18 02:36:18;;;;;;;14.05;10.40;;;;;;;17.17;99.83;101590.88;5014868;28;20037;-71
2023/08/18 02:38:44;;;;;;;14.23;10.27;;;;;;;17.13;100.00;101597.66;5018796;28;20048;-73
2023/08/18 02:41:10;;;;;;;14.70;10.88;;;;;;;17.11;100.00;101588.66;5015239;28;20033;-72
2023/08/18 02:43:35;;;;;;;14.45;11.13;;;;;;;17.09;100.00;101590.69;5013412;28;20533;-72
2023/08/18 02:46:01;;;;;;;13.20;10.35;;;;;;;17.08;100.00;101587.06;5006151;28;20068;-73
2023/08/18 02:48:28;;;;;;;18.23;10.85;;;;;;;17.09;100.00;101585.19;5008853;28;20125;-74
2023/08/18 02:51:04;;;;;;;14.13;10.70;;;;;;;17.13;100.00;101588.53;5017649;28;20037;-73
2023/08/18 02:53:31;;;;;;;16.42;11.13;;;;;;;17.13;100.00;101594.91;5026280;28;20107;-74
2023/08/18 02:55:58;;;;;;;16.25;11.75;;;;;;;17.09;100.00;101587.94;5026742;28;20215;-73
2023/08/18 02:58:24;;;;;;;15.40;11.68;;;;;;;17.08;100.00;101584.31;5010202;28;20367;-73
2023/08/18 03:00:50;;;;;;;14.75;11.50;;;;;;;17.08;99.84;101586.19;5016428;28;20052;-73
2023/08/18 03:03:15;;;;;;;17.67;12.32;;;;;;;17.04;100.00;101580.09;5026591;28;20037;-73
2023/08/18 03:05:40;;;;;;;16.70;11.13;;;;;;;17.03;100.00;101572.84;5008199;28;20048;-73
2023/08/18 03:08:06;;;;;;;15.45;11.23;;;;;;;17.04;100.00;101580.09;5025193;28;20025;-72
2023/08/18 03:10:31;;;;;;;16.52;11.40;;;;;;;17.03;100.00;101575.59;5022782;28;20079;-73
2023/08/18 03:12:58;;;;;;;16.15;10.75;;;;;;;17.03;100.00;101572.84;5026384;28;20021;-73
2023/08/18 03:15:23;;;;;;;14.85;11.00;;;;;;;17.04;100.00;101576.47;5023046;28;20116;-69
2023/08/18 03:17:50;;;;;;;14.82;10.95;;;;;;;17.04;100.00;101580.09;5029907;28;20048;-73
2023/08/18 03:20:15;;;;;;;16.05;10.63;;;;;;;17.06;100.00;101571.69;5027255;28;20428;-72
2023/08/18 03:22:41;;;;;;;16.60;11.77;;;;;;;17.07;100.00;101582.56;5028323;28;20055;-72
2023/08/18 03:25:08;;;;;;;14.88;12.05;;;;;;;17.02;100.00;101579.38;5028807;28;20044;-72
2023/08/18 03:27:34;;;;;;;14.65;10.57;;;;;;;16.99;100.00;101578.75;5029033;28;20048;-73
2023/08/18 03:29:59;;;;;;;15.25;11.43;;;;;;;16.97;100.00;101580.75;5027501;28;20030;-73
2023/08/18 03:32:25;;;;;;;16.33;10.70;;;;;;;16.92;100.00;101577.53;5030216;28;20095;-72
2023/08/18 03:34:56;;;;;;;14.90;11.45;;;;;;;16.92;100.00;101569.28;5020232;28;20112;-72
2023/08/18 03:37:23;;;;;;;;;;;;;;;16.96;99.78;101571.63;5029348;28;20040;-73
2023/08/18 03:39:48;;;;;;;15.55;11.52;;;;;;;16.92;100.00;101570.16;5029282;28;20280;-73
2023/08/18 03:42:14;;;;;;;14.98;11.18;;;;;;;16.90;100.00;101574.06;5028543;28;20079;-73
2023/08/18 03:44:40;;;;;;;18.80;12.00;;;;;;;16.89;100.00;101572.31;5028317;28;20068;-73
2023/08/18 03:47:05;;;;;;;15.23;12.43;;;;;;;16.87;100.00;101577.06;5028416;28;20041;-72
2023/08/18 03:49:31;;;;;;;17.00;11.98;;;;;;;16.86;100.00;101578.94;5023401;28;20150;-73
2023/08/18 03:51:57;;;;;;;17.90;12.55;;;;;;;16.84;100.00;101572.72;5009074;28;20489;-73
2023/08/18 03:54:22;;;;;;;17.33;11.77;;;;;;;16.82;100.00;101570.09;5020974;28;20086;-73
2023/08/18 03:56:47;;;;;;;17.25;11.50;;;;;;;16.83;100.00;101570.97;5028084;28;20040;-72
2023/08/18 03:59:15;;;;;;;18.95;11.52;;;;;;;16.83;100.00;101576.44;5011415;28;20048;-71
2023/08/18 04:01:40;;;;;;;17.05;12.07;;;;;;;16.81;100.00;101576.59;5030133;28;20033;-72
2023/08/18 04:04:05;;;;;;;18.67;11.82;;;;;;;16.79;100.00;101566.75;5009437;28;20083;-72
2023/08/18 04:06:31;;;;;;;17.77;12.10;;;;;;;16.79;100.00;101572.25;5027574;28;20116;-70
2023/08/18 04:09:06;;;;;;;16.08;11.35;;;;;;;16.79;100.00;101578.63;5016623;28;20056;-71
2023/08/18 04:11:34;;;;;;;16.75;11.90;;;;;;;16.79;100.00;101575.00;5012807;28;20029;-70
2023/08/18 04:14:00;;;;;;;18.30;11.82;;;;;;;16.77;100.00;101575.13;5027479;28;20485;-72
2023/08/18 04:16:26;;;;;;;19.48;12.95;;;;;;;16.77;100.00;101572.38;5025747;28;20041;-72
2023/08/18 04:18:51;;;;;;;20.58;12.70;;;;;;;16.76;100.00;101583.50;5007860;28;20503;-72
2023/08/18 04:21:16;;;;;;;19.20;12.80;;;;;;;16.76;100.00;101578.88;5024894;28;20038;-71
2023/08/18 04:23:42;;;;;;;19.38;12.77;;;;;;;16.76;100.00;101567.88;5028828;28;20017;-73
2023/08/18 04:26:12;;;;;;;19.15;12.30;;;;;;;16.73;100.00;101567.28;5028325;28;20488;-71
2023/08/18 04:28:38;;;;;;;20.02;12.93;;;;;;;16.70;100.00;101565.66;5010116;28;20025;-71
2023/08/18 04:31:03;;;;;;;18.05;12.65;;;;;;;16.69;100.00;101557.50;5009794;28;20034;-72
2023/08/18 04:33:51;;;;;;;24.10;13.30;;;;;;;16.68;100.00;101556.66;5008355;28;20390;-72
2023/08/18 04:36:17;;;;;;;21.88;13.88;;;;;;;16.68;100.00;101556.66;5009512;28;20048;-73
2023/08/18 04:38:42;;;;;;;23.42;13.35;;;;;;;16.67;100.00;101565.03;5013445;28;20199;-69
2023/08/18 04:41:14;;;;;;;19.42;12.85;;;;;;;16.66;100.00;101553.19;5027805;28;20497;-71
2023/08/18 04:43:40;;;;;;;21.65;12.32;;;;;;;16.68;100.00;101558.53;5027109;28;20036;-73
2023/08/18 04:46:05;;;;;;;25.20;13.65;;;;;;;16.69;100.00;101560.25;5027796;28;20025;-72
2023/08/18 04:48:32;;;;;;;22.67;13.23;;;;;;;16.65;100.00;101559.69;5027673;28;20546;-73
2023/08/18 04:50:58;;;;;;;19.38;12.35;;;;;;;16.68;100.00;101558.53;5025224;28;20061;-72
2023/08/18 04:53:24;;;;;;;20.40;13.27;;;;;;;16.70;100.00;101571.16;5026579;28;20481;-73
2023/08/18 04:55:50;;;;;;;19.85;13.10;;;;;;;16.73;100.00;101578.25;5027841;28;20037;-72
2023/08/18 04:58:15;;;;;;;26.20;14.57;;;;;;;16.73;100.00;101570.88;5025185;28;20788;-72
2023/08/18 05:00:42;;;;;;;24.88;14.10;;;;;;;16.77;100.00;101568.75;5027652;28;20186;-73
2023/08/18 05:03:08;;;;;;;25.75;14.57;;;;;;;16.76;100.00;101567.03;5028090;28;20037;-73
2023/08/18 05:05:34;;;;;;;23.67;14.40;;;;;;;16.78;100.00;101567.75;5025448;28;20564;-73
2023/08/18 05:08:00;;;;;;;23.67;13.88;;;;;;;16.82;100.00;101574.72;5028752;28;20037;-72
2023/08/18 05:10:25;;;;;;;20.92;13.48;;;;;;;16.86;100.00;101570.69;5023504;28;20580;-72
2023/08/18 05:12:51;;;;;;;20.38;12.98;;;;;;;16.85;100.00;101560.72;5025863;28;20172;-73
2023/08/18 05:15:17;;;;;;;28.13;14.45;;;;;;;16.87;100.00;101563.31;5025627;28;20397;-72
2023/08/18 05:17:42;;;;;;;24.35;14.32;;;;;;;16.88;100.00;101565.06;5027421;28;20064;-68
2023/08/18 05:20:09;;;;;;;20.95;13.73;;;;;;;16.87;100.00;101558.69;5017635;28;20018;-71
2023/08/18 05:22:35;;;;;;;23.38;14.73;;;;;;;16.88;100.00;101552.22;5008941;28;20038;-72
2023/08/18 05:25:00;;;;;;;22.88;13.25;;;;;;;16.90;100.00;101552.94;5008180;28;20096;-72
2023/08/18 05:27:25;;;;;;;22.90;13.75;;;;;;;16.89;100.00;101542.97;5013160;28;20026;-72
2023/08/18 05:29:51;;;;;;;25.75;14.55;;;;;;;16.92;100.00;101547.28;5023237;28;20035;-72
2023/08/18 05:32:16;;;;;;;24.95;14.77;;;;;;;16.96;100.00;101544.13;5006825;28;20038;-72
2023/08/18 05:34:41;;;;;;;22.80;13.63;;;;;;;17.01;100.00;101554.72;5007788;28;20048;-72
2023/08/18 05:37:07;;;;;;;23.20;14.55;;;;;;;17.02;100.00;101550.97;5008116;28;20470;-72
2023/08/18 05:39:32;;;;;;;21.52;15.00;;;;;;;17.04;100.00;101546.22;5012916;28;20488;-72
2023/08/18 05:41:57;;;;;;;25.00;14.85;;;;;;;17.05;100.00;101554.31;5015027;28;20032;-71
2023/08/18 05:44:23;;;;;;;25.45;15.43;;;;;;;17.07;100.00;101551.47;5014299;28;20069;-72
2023/08/18 05:46:48;;;;;;;23.30;14.95;;;;;;;17.11;100.00;101552.91;5019096;28;20096;-72
2023/08/18 05:49:13;;;;;;;24.95;15.50;;;;;;;17.16;100.00;101552.50;5015692;28;20129;-69
2023/08/18 05:51:42;;;;;;;26.40;15.90;;;;;;;17.21;100.00;101559.34;5024270;28;20037;-71
2023/08/18 05:54:09;;;;;;;26.83;15.38;;;;;;;17.28;100.00;101555.03;5015491;28;20484;-72
2023/08/18 05:56:34;;;;;;;22.77;15.10;;;;;;;17.33;100.00;101552.72;5042473;28;20044;-72
2023/08/18 05:58:59;;;;;;;24.25;16.00;;;;;;;17.37;100.00;101558.84;5017565;28;20053;-72
2023/08/18 06:01:25;;;;;;;21.70;15.00;;;;;;;17.36;100.00;101551.59;5025669;28;20402;-71
2023/08/18 06:03:50;;;;;;;28.33;15.50;;;;;;;17.33;100.00;101554.63;5025846;28;20037;-72
2023/08/18 06:06:16;;;;;;;28.90;16.42;;;;;;;17.32;100.00;101558.38;5020482;28;20040;-70
2023/08/18 06:08:41;;;;;;;26.67;15.65;;;;;;;17.33;100.00;101555.47;5027675;28;20533;-71
2023/08/18 06:11:07;;;;;;;23.48;15.13;;;;;;;17.36;100.00;101567.25;5025211;28;20449;-72
2023/08/18 06:13:32;;;;;;;22.67;14.32;;;;;;;17.31;100.00;101564.91;5024675;28;20543;-72
2023/08/18 06:16:02;;;;;;;27.00;15.40;;;;;;;17.34;100.00;101568.22;5027320;28;20048;-72
2023/08/18 06:18:27;;;;;;;22.55;14.32;;;;;;;17.33;100.00;101573.88;5025025;28;20135;-72
2023/08/18 06:20:53;;;;;;;24.50;14.70;;;;;;;17.28;100.00;101571.53;5007499;28;20473;-72
2023/08/18 06:23:18;;;;;;;26.30;14.52;;;;;;;17.26;100.00;101567.19;5006438;28;20518;-73
2023/08/18 06:25:44;;;;;;;22.50;14.75;;;;;;;17.25;100.00;101569.06;5007763;28;20121;-72
2023/08/18 06:28:09;;;;;;;21.73;14.25;;;;;;;17.25;100.00;101569.06;5007810;28;20584;-72
2023/08/18 06:30:34;;;;;;;24.95;15.07;;;;;;;17.27;100.00;101563.44;5010254;28;20084;-71
2023/08/18 06:33:00;;;;;;;24.58;15.05;;;;;;;17.27;100.00;101569.78;5007129;28;20041;-72
2023/08/18 06:35:25;;;;;;;26.58;16.25;;;;;;;17.29;100.00;101561.41;5016126;28;20030;-72
2023/08/18 06:37:50;;;;;;;22.38;14.80;;;;;;;17.30;100.00;101550.28;5042321;28;20045;-71
2023/08/18 06:40:16;;;;;;;25.35;15.85;;;;;;;17.37;100.00;101553.34;5026135;28;20037;-72
2023/08/18 06:42:41;;;;;;;28.30;15.50;;;;;;;17.43;100.00;101554.66;5026339;28;20084;-71
2023/08/18 06:45:07;;;;;;;25.20;16.02;;;;;;;17.41;100.00;101553.94;5029261;28;20461;-72
2023/08/18 06:47:33;;;;;;;28.65;16.17;;;;;;;17.41;100.00;101553.94;5015472;28;20060;-72
2023/08/18 06:49:59;;;;;;;29.30;16.73;;;;;;;17.45;100.00;101549.91;5010427;28;20519;-69
2023/08/18 06:52:26;;;;;;;25.60;15.50;;;;;;;17.50;100.00;101558.63;5011343;28;20501;-72
2023/08/18 06:54:51;;;;;;;26.55;17.58;;;;;;;17.54;100.00;101558.19;5012872;28;20804;-70
2023/08/18 06:57:16;;;;;;;27.80;15.82;;;;;;;17.64;100.00;101549.97;5008017;28;20079;-70
2023/08/18 06:59:42;;;;;;;27.92;15.55;;;;;;;17.70;100.00;101554.03;5011697;28;20054;-72
2023/08/18 07:02:07;;;;;;;26.08;16.05;;;;;;;17.78;100.00;101541.34;5010464;28;20117;-70
2023/08/18 07:04:32;;;;;;;24.58;15.10;;;;;;;17.86;99.83;101540.66;5019234;28;20045;-72
2023/08/18 07:06:58;;;;;;;25.17;15.35;;;;;;;17.91;99.83;101541.09;5009733;28;20207;-73
2023/08/18 07:09:23;;;;;;;26.02;16.17;;;;;;;17.95;99.28;101542.56;5018425;28;20040;-72
2023/08/18 07:11:48;;;;;;;26.20;15.63;;;;;;;17.97;99.77;101543.28;5030056;28;20473;-72
2023/08/18 07:14:14;;;;;;;26.60;16.20;;;;;;;18.00;98.56;101543.00;5028498;28;20432;-72
2023/08/18 07:16:39;;;;;;;27.40;15.18;;;;;;;17.96;99.10;101522.28;5030981;28;20091;-72
2023/08/18 07:19:05;;;;;;;25.25;16.80;;;;;;;17.94;99.66;101531.69;5030009;28;20049;-70
2023/08/18 07:21:30;;;;;;;25.35;15.73;;;;;;;17.96;100.00;101532.41;5028395;28;20045;-72
2023/08/18 07:23:55;;;;;;;25.05;15.23;;;;;;;17.94;100.00;101531.69;5027879;28;20091;-71
2023/08/18 07:26:21;;;;;;;24.88;15.52;;;;;;;17.90;100.00;101538.47;5028988;28;20432;-72
2023/08/18 07:28:46;;;;;;;25.42;15.95;;;;;;;17.91;100.00;101535.59;5022163;28;20107;-72
2023/08/18 07:31:11;;;;;;;26.85;16.10;;;;;;;17.94;100.00;101537.19;5030784;28;20456;-71
2023/08/18 07:33:37;;;;;;;24.42;15.27;;;;;;;17.95;100.00;101539.81;5029832;28;20045;-70
2023/08/18 07:36:02;;;;;;;25.92;16.33;;;;;;;18.03;99.98;101541.84;5015193;28;20038;-72
2023/08/18 07:38:30;;;;;;;30.48;17.27;;;;;;;18.12;100.00;101540.13;5011107;28;20042;-72
2023/08/18 07:40:55;;;;;;;28.33;17.63;;;;;;;18.19;99.85;101538.53;5027973;28;20473;-72
2023/08/18 07:43:20;;;;;;;30.30;18.17;;;;;;;18.24;98.54;101539.84;5024575;28;20046;-72
2023/08/18 07:45:46;;;;;;;27.95;17.50;;;;;;;18.35;98.68;101542.44;5010177;28;20057;-72
2023/08/18 07:48:12;;;;;;;29.38;17.10;;;;;;;18.38;99.12;101538.53;5027226;28;20455;-71
2023/08/18 07:50:40;;;;;;;28.77;17.50;;;;;;;18.41;98.35;101540.13;5024813;28;20470;-72
2023/08/18 07:53:05;;;;;;;28.35;16.88;;;;;;;18.40;97.55;101554.91;5010098;28;20081;-72
2023/08/18 07:55:30;;;;;;;43.33;18.77;;;;;;;18.35;98.45;101553.47;5011952;28;20438;-72
2023/08/18 07:57:56;;;;;;;30.45;18.85;;;;;;;18.35;99.41;101553.47;5010447;28;20048;-72
2023/08/18 08:00:21;;;;;;;27.48;18.08;;;;;;;18.44;98.70;101553.63;5027457;28;20038;-72
2023/08/18 08:02:48;;;;;;;29.25;18.52;;;;;;;18.45;99.55;101558.09;5029325;28;20041;-72
2023/08/18 08:05:14;;;;;;;28.60;17.75;;;;;;;18.54;98.71;101560.00;5027813;28;20114;-72
2023/08/18 08:07:40;;;;;;;31.33;19.27;;;;;;;18.60;97.34;101559.41;5030271;28;20029;-72
2023/08/18 08:10:06;;;;;;;29.05;18.27;;;;;;;18.63;98.68;101559.13;5029446;28;20048;-72
2023/08/18 08:12:34;;;;;;;29.67;19.15;;;;;;;18.58;97.63;101548.53;5027436;28;20111;-72
2023/08/18 08:15:00;;;;;;;30.40;18.52;;;;;;;18.65;98.11;101554.31;5013512;28;20042;-71
2023/08/18 08:17:25;;;;;;;30.15;18.55;;;;;;;18.68;97.84;101559.53;5009635;28;20041;-72
2023/08/18 08:19:50;;;;;;;34.53;19.67;;;;;;;18.76;98.11;101553.34;5012790;28;20441;-71
2023/08/18 08:22:16;;;;;;;29.83;19.35;;;;;;;18.79;97.38;101548.41;5026454;28;20079;-72
2023/08/18 08:24:42;;;;;;;27.40;18.02;;;;;;;18.86;97.79;101554.19;5010110;28;20145;-72
2023/08/18 08:27:08;;;;;;;27.58;16.67;;;;;;;18.94;96.96;101547.94;5009980;28;20045;-72
2023/08/18 08:29:33;;;;;;;28.55;17.13;;;;;;;19.02;96.64;101553.56;5016126;28;20046;-72
2023/08/18 08:31:59;;;;;;;24.88;16.85;;;;;;;19.00;95.39;101561.13;5009386;28;20026;-72
2023/08/18 08:34:24;;;;;;;25.35;16.50;;;;;;;19.06;95.83;101563.28;5009342;28;20057;-73
2023/08/18 08:36:49;;;;;;;26.92;16.52;;;;;;;19.09;94.68;101563.00;5009141;28;20041;-72
2023/08/18 08:39:15;;;;;;;28.02;17.67;;;;;;;19.15;95.23;101562.41;5007939;28;20482;-72
2023/08/18 08:41:40;;;;;;;30.77;18.65;;;;;;;19.13;95.11;101569.97;5014758;28;20045;-72
2023/08/18 08:44:06;;;;;;;33.00;19.75;;;;;;;19.13;95.09;101575.47;5020160;28;20038;-72
2023/08/18 08:46:34;;;;;;;31.60;19.60;;;;;;;19.10;95.52;101578.53;5006574;28;20761;-72
2023/08/18 08:49:04;;;;;;;34.97;20.33;;;;;;;19.11;96.11;101575.59;5015922;28;20029;-71
2023/08/18 08:51:34;;;;;;;32.28;20.35;;;;;;;19.17;95.77;101573.31;5021607;28;20472;-72
2023/08/18 08:54:01;;;;;;;31.98;19.95;;;;;;;19.19;94.81;101572.13;5018348;28;20040;-72
2023/08/18 08:56:31;;;;;;;31.67;19.67;;;;;;;19.19;94.72;101572.13;5011841;28;20101;-72
2023/08/18 08:58:57;;;;;;;31.98;20.67;;;;;;;19.22;94.68;101570.97;5025301;28;20377;-72
2023/08/18 09:01:26;;;;;;;35.13;19.45;;;;;;;19.28;95.53;101585.00;5026706;28;20041;-72
2023/08/18 09:03:51;;;;;;;30.65;18.95;;;;;;;19.40;94.86;101582.06;5021964;28;20117;-70
2023/08/18 09:06:17;;;;;;;25.65;17.10;;;;;;;19.57;94.03;101576.63;5011071;28;20498;-72
2023/08/18 09:08:42;;;;;;;29.38;15.88;;;;;;;19.72;94.81;101579.78;5018680;28;20037;-69
2023/08/18 09:11:08;;;;;;;25.02;15.48;;;;;;;19.83;94.26;101575.97;5023665;28;20052;-70
2023/08/18 09:13:35;;;;;;;24.80;16.55;;;;;;;19.82;91.59;101577.88;5021782;28;20034;-69
2023/08/18 09:16:04;;;;;;;27.05;16.60;;;;;;;19.90;92.95;101585.38;5026966;28;20091;-72
2023/08/18 09:18:32;;;;;;;25.15;16.63;;;;;;;20.00;91.71;101579.78;5018895;28;20104;-72
2023/08/18 09:20:57;;;;;;;25.05;16.42;;;;;;;20.09;90.89;101578.84;5024281;28;20125;-72
2023/08/18 09:23:26;;;;;;;29.20;17.70;;;;;;;20.19;90.26;101576.03;5024344;28;20120;-72
2023/08/18 09:25:51;;;;;;;25.98;17.48;;;;;;;20.20;91.18;101573.13;5020297;28;20128;-72
2023/08/18 09:28:17;;;;;;;23.55;15.77;;;;;;;20.30;90.66;101567.53;5019216;28;20447;-70
2023/08/18 09:30:43;;;;;;;29.33;18.25;;;;;;;20.36;90.52;101555.84;5018851;28;20057;-69
2023/08/18 09:33:08;;;;;;;24.95;16.90;;;;;;;20.42;89.55;101565.38;5016423;28;20041;-72
2023/08/18 09:35:34;;;;;;;22.90;16.08;;;;;;;20.49;90.56;101563.78;5015314;28;20041;-71
2023/08/18 09:38:00;;;;;;;24.15;16.23;;;;;;;20.50;89.23;101563.59;5026378;28;20032;-72
2023/08/18 09:40:26;;;;;;;25.77;16.67;;;;;;;20.55;88.79;101563.13;5026221;28;20065;-72
2023/08/18 09:42:51;;;;;;;25.48;17.05;;;;;;;20.60;88.25;101566.28;5024843;28;20457;-72
2023/08/18 09:45:23;;;;;;;23.90;15.68;;;;;;;20.66;88.53;101560.13;5022279;28;20128;-72
2023/08/18 09:47:53;;;;;;;24.03;15.03;;;;;;;20.73;87.31;101557.59;5015721;28;20493;-71
2023/08/18 09:50:20;;;;;;;21.88;15.45;;;;;;;20.72;87.07;101558.63;5019829;28;20527;-72
2023/08/18 09:52:51;;;;;;;21.42;15.43;;;;;;;20.74;87.07;101564.84;5022468;28;20050;-72
2023/08/18 09:55:18;;;;;;;22.77;15.70;;;;;;;20.78;86.88;101567.13;5024861;28;20044;-71
2023/08/18 09:57:57;;;;;;;25.10;16.10;;;;;;;20.92;87.56;101559.28;5023205;28;20416;-72
2023/08/18 10:00:24;;;;;;;22.40;15.13;;;;;;;21.11;87.66;101556.31;5020927;28;20037;-72
2023/08/18 10:02:52;;;;;;;26.08;17.08;;;;;;;21.21;85.16;101553.44;5025451;28;20119;-72
2023/08/18 10:05:18;;;;;;;25.83;17.48;;;;;;;21.17;85.38;101554.78;5021580;28;20064;-72
2023/08/18 10:07:45;;;;;;;28.70;17.92;;;;;;;21.13;84.83;101557.91;5010019;28;20074;-72
2023/08/18 10:10:12;;;;;;;28.52;17.63;;;;;;;21.21;86.02;101553.44;5018783;28;20052;-71
2023/08/18 10:12:38;;;;;;;26.63;18.40;;;;;;;21.43;87.29;101560.34;5022955;28;20097;-71
2023/08/18 10:15:05;;;;;;;28.50;18.92;;;;;;;21.43;85.06;101552.91;5024526;28;20041;-72
2023/08/18 10:17:31;;;;;;;26.85;17.92;;;;;;;21.50;83.95;101547.59;5023882;28;20057;-72
2023/08/18 10:20:00;;;;;;;29.13;19.73;;;;;;;21.58;84.39;101551.25;5020248;28;20370;-72
2023/08/18 10:22:28;;;;;;;29.95;20.27;;;;;;;21.48;84.63;101541.34;5020556;28;20050;-72
2023/08/18 10:24:55;;;;;;;26.42;17.95;;;;;;;21.49;84.45;101541.16;5011990;28;20041;-70
2023/08/18 10:27:26;;;;;;;28.85;18.52;;;;;;;21.57;84.60;101537.59;5013588;28;20033;-70
2023/08/18 10:29:57;;;;;;;27.23;18.73;;;;;;;21.68;83.29;101534.50;5007469;28;20033;-71
2023/08/18 10:32:23;;;;;;;26.67;19.08;;;;;;;21.74;82.86;101513.59;5007425;28;20073;-71
2023/08/18 10:34:50;;;;;;;26.42;18.88;;;;;;;22.01;84.15;101516.13;5007197;28;20056;-72
2023/08/18 10:37:20;;;;;;;28.98;18.55;;;;;;;22.12;81.79;101524.13;5005844;28;20041;-72
2023/08/18 10:39:45;;;;;;;27.73;19.55;;;;;;;22.00;81.42;101519.91;5007334;28;20052;-72
2023/08/18 10:42:15;;;;;;;25.90;18.98;;;;;;;22.17;82.43;101520.84;5007335;28;20046;-71
2023/08/18 10:45:05;;;;;;;24.27;17.95;;;;;;;22.43;82.24;101515.16;5008198;28;20038;-72
2023/08/18 10:47:34;;;;;;;28.55;18.83;;;;;;;22.58;81.02;101520.88;5017752;28;20370;-72
2023/08/18 10:50:07;;;;;;;49.50;20.02;;;;;;;22.59;80.78;101519.84;5020298;28;20057;-73
2023/08/18 10:52:32;;;;;;;29.63;18.05;;;;;;;22.69;80.86;101511.34;5007409;28;20659;-72
2023/08/18 10:54:58;;;;;;;26.92;18.00;;;;;;;22.72;80.08;101508.22;5007365;28;20373;-72
2023/08/18 10:57:24;;;;;;;29.65;18.83;;;;;;;22.87;79.37;101510.13;5024337;28;20033;-72
2023/08/18 10:59:52;;;;;;;27.42;18.88;;;;;;;22.95;78.93;101503.72;5023873;28;20061;-72
2023/08/18 11:02:17;;;;;;;31.80;19.40;;;;;;;23.05;78.10;101496.06;5026879;28;20167;-71
2023/08/18 11:04:43;;;;;;;25.67;18.45;;;;;;;23.15;77.29;101487.53;5021460;28;20495;-71